sensor_id;sensor_type;location;lat;lon;timestamp;P1;durP1;ratioP1;P2;durP2;ratioP2
5787;SDS011;2920;48.158;12.254;2023-01-16T00:02:05;0.75;;;0.63;;
5787;SDS011;2920;48.158;12.254;2023-01-16T00:04:30;1.35;;;0.57;;
5787;SDS011;2920;48.158;12.254;2023-01-16T00:06:55;1.02;;;0.73;;
5787;SDS011;2920;48.158;12.254;2023-01-16T00:09:20;2.40;;;1.17;;
5787;SDS011;2920;48.158;12.254;2023-01-16T00:11:46;0.65;;;0.60;;
5787;SDS011;2920;48.158;12.254;2023-01-16T00:14:12;0.90;;;0.60;;
5787;SDS011;2920;48.158;12.254;2023-01-16T00:16:37;1.13;;;0.68;;
5787;SDS011;2920;48.158;12.254;2023-01-16T00:19:02;0.60;;;0.40;;
5787;SDS011;2920;48.158;12.254;2023-01-16T00:21:28;1.48;;;0.80;;
5787;SDS011;2920;48.158;12.254;2023-01-16T00:23:54;2.53;;;0.90;;
5787;SDS011;2920;48.158;12.254;2023-01-16T00:26:20;2.03;;;1.00;;
5787;SDS011;2920;48.158;12.254;2023-01-16T00:28:45;2.20;;;0.60;;
5787;SDS011;2920;48.158;12.254;2023-01-16T00:31:10;2.38;;;0.90;;
5787;SDS011;2920;48.158;12.254;2023-01-16T00:33:36;1.13;;;0.73;;
5787;SDS011;2920;48.158;12.254;2023-01-16T00:36:01;1.50;;;0.77;;
5787;SDS011;2920;48.158;12.254;2023-01-16T00:38:27;2.72;;;1.17;;
5787;SDS011;2920;48.158;12.254;2023-01-16T00:40:52;4.03;;;1.17;;
5787;SDS011;2920;48.158;12.254;2023-01-16T00:43:18;3.90;;;0.85;;
5787;SDS011;2920;48.158;12.254;2023-01-16T00:45:43;2.33;;;0.90;;
5787;SDS011;2920;48.158;12.254;2023-01-16T00:48:08;1.17;;;0.80;;
5787;SDS011;2920;48.158;12.254;2023-01-16T00:50:34;1.27;;;0.75;;
5787;SDS011;2920;48.158;12.254;2023-01-16T00:52:59;1.20;;;0.80;;
5787;SDS011;2920;48.158;12.254;2023-01-16T00:55:25;2.33;;;1.15;;
5787;SDS011;2920;48.158;12.254;2023-01-16T00:57:50;1.05;;;0.90;;
5787;SDS011;2920;48.158;12.254;2023-01-16T01:00:17;2.38;;;1.08;;
5787;SDS011;2920;48.158;12.254;2023-01-16T01:02:44;2.90;;;0.85;;
5787;SDS011;2920;48.158;12.254;2023-01-16T01:05:10;1.88;;;0.90;;
5787;SDS011;2920;48.158;12.254;2023-01-16T01:07:35;1.90;;;1.20;;
5787;SDS011;2920;48.158;12.254;2023-01-16T01:10:01;2.25;;;1.13;;
5787;SDS011;2920;48.158;12.254;2023-01-16T01:12:26;2.60;;;1.10;;
5787;SDS011;2920;48.158;12.254;2023-01-16T01:14:51;2.08;;;1.00;;
5787;SDS011;2920;48.158;12.254;2023-01-16T01:17:17;3.25;;;1.30;;
5787;SDS011;2920;48.158;12.254;2023-01-16T01:19:42;1.95;;;1.20;;
5787;SDS011;2920;48.158;12.254;2023-01-16T01:22:07;1.38;;;0.93;;
5787;SDS011;2920;48.158;12.254;2023-01-16T01:24:33;2.17;;;1.30;;
5787;SDS011;2920;48.158;12.254;2023-01-16T01:26:58;4.88;;;1.65;;
5787;SDS011;2920;48.158;12.254;2023-01-16T01:29:23;5.43;;;1.55;;
5787;SDS011;2920;48.158;12.254;2023-01-16T01:31:49;1.88;;;1.13;;
5787;SDS011;2920;48.158;12.254;2023-01-16T01:34:14;1.20;;;0.93;;
5787;SDS011;2920;48.158;12.254;2023-01-16T01:36:39;1.13;;;1.00;;
5787;SDS011;2920;48.158;12.254;2023-01-16T01:39:04;2.55;;;1.50;;
5787;SDS011;2920;48.158;12.254;2023-01-16T01:41:30;1.58;;;1.13;;
5787;SDS011;2920;48.158;12.254;2023-01-16T01:43:55;3.28;;;1.52;;
5787;SDS011;2920;48.158;12.254;2023-01-16T01:46:24;2.20;;;1.10;;
5787;SDS011;2920;48.158;12.254;2023-01-16T01:48:53;1.30;;;0.85;;
5787;SDS011;2920;48.158;12.254;2023-01-16T01:51:31;1.77;;;1.20;;
5787;SDS011;2920;48.158;12.254;2023-01-16T01:54:14;2.03;;;1.05;;
5787;SDS011;2920;48.158;12.254;2023-01-16T01:56:43;0.90;;;0.77;;
5787;SDS011;2920;48.158;12.254;2023-01-16T01:59:12;3.42;;;1.25;;
5787;SDS011;2920;48.158;12.254;2023-01-16T02:04:10;1.60;;;0.90;;
5787;SDS011;2920;48.158;12.254;2023-01-16T02:09:17;1.45;;;0.75;;
5787;SDS011;2920;48.158;12.254;2023-01-16T02:11:46;2.63;;;1.65;;
5787;SDS011;2920;48.158;12.254;2023-01-16T02:14:15;3.97;;;1.48;;
5787;SDS011;2920;48.158;12.254;2023-01-16T02:16:41;2.50;;;1.50;;
5787;SDS011;2920;48.158;12.254;2023-01-16T02:19:47;2.58;;;1.45;;
5787;SDS011;2920;48.158;12.254;2023-01-16T02:28:32;3.40;;;1.45;;
5787;SDS011;2920;48.158;12.254;2023-01-16T02:32:02;3.45;;;2.05;;
5787;SDS011;2920;48.158;12.254;2023-01-16T02:37:11;1.58;;;1.17;;
5787;SDS011;2920;48.158;12.254;2023-01-16T02:39:53;1.58;;;1.15;;
5787;SDS011;2920;48.158;12.254;2023-01-16T02:42:32;2.78;;;1.27;;
5787;SDS011;2920;48.158;12.254;2023-01-16T02:50:18;1.80;;;1.45;;
5787;SDS011;2920;48.158;12.254;2023-01-16T02:52:55;2.30;;;1.13;;
5787;SDS011;2920;48.158;12.254;2023-01-16T02:55:33;2.25;;;1.38;;
5787;SDS011;2920;48.158;12.254;2023-01-16T02:58:02;1.65;;;1.25;;
5787;SDS011;2920;48.158;12.254;2023-01-16T03:00:29;3.03;;;1.70;;
5787;SDS011;2920;48.158;12.254;2023-01-16T03:02:55;3.13;;;1.45;;
5787;SDS011;2920;48.158;12.254;2023-01-16T03:05:21;4.50;;;1.35;;
5787;SDS011;2920;48.158;12.254;2023-01-16T03:07:54;2.00;;;1.45;;
5787;SDS011;2920;48.158;12.254;2023-01-16T03:18:45;1.85;;;1.33;;
5787;SDS011;2920;48.158;12.254;2023-01-16T03:27:33;2.42;;;1.65;;
5787;SDS011;2920;48.158;12.254;2023-01-16T03:35:42;3.03;;;2.00;;
5787;SDS011;2920;48.158;12.254;2023-01-16T03:38:12;2.45;;;1.83;;
5787;SDS011;2920;48.158;12.254;2023-01-16T03:40:40;2.20;;;1.90;;
5787;SDS011;2920;48.158;12.254;2023-01-16T03:45:43;3.78;;;2.40;;
5787;SDS011;2920;48.158;12.254;2023-01-16T03:48:16;3.22;;;2.28;;
5787;SDS011;2920;48.158;12.254;2023-01-16T03:50:47;3.28;;;2.28;;
5787;SDS011;2920;48.158;12.254;2023-01-16T03:53:15;3.47;;;2.17;;
5787;SDS011;2920;48.158;12.254;2023-01-16T03:55:45;3.85;;;2.75;;
5787;SDS011;2920;48.158;12.254;2023-01-16T03:58:36;3.63;;;2.60;;
5787;SDS011;2920;48.158;12.254;2023-01-16T04:03:37;6.15;;;2.72;;
5787;SDS011;2920;48.158;12.254;2023-01-16T04:06:24;5.05;;;2.58;;
5787;SDS011;2920;48.158;12.254;2023-01-16T04:08:56;3.83;;;2.65;;
5787;SDS011;2920;48.158;12.254;2023-01-16T04:11:22;3.65;;;2.53;;
5787;SDS011;2920;48.158;12.254;2023-01-16T04:13:49;4.82;;;3.13;;
5787;SDS011;2920;48.158;12.254;2023-01-16T04:16:15;3.20;;;2.28;;
5787;SDS011;2920;48.158;12.254;2023-01-16T04:18:43;3.55;;;2.80;;
5787;SDS011;2920;48.158;12.254;2023-01-16T04:21:09;3.63;;;2.17;;
5787;SDS011;2920;48.158;12.254;2023-01-16T04:23:35;4.53;;;3.35;;
5787;SDS011;2920;48.158;12.254;2023-01-16T04:26:00;3.20;;;2.65;;
5787;SDS011;2920;48.158;12.254;2023-01-16T04:28:26;3.95;;;2.92;;
5787;SDS011;2920;48.158;12.254;2023-01-16T04:30:51;6.40;;;2.80;;
5787;SDS011;2920;48.158;12.254;2023-01-16T04:33:16;4.65;;;2.33;;
5787;SDS011;2920;48.158;12.254;2023-01-16T04:35:42;4.72;;;2.60;;
5787;SDS011;2920;48.158;12.254;2023-01-16T04:38:07;3.45;;;2.58;;
5787;SDS011;2920;48.158;12.254;2023-01-16T04:40:32;3.25;;;2.33;;
5787;SDS011;2920;48.158;12.254;2023-01-16T04:42:58;3.65;;;2.53;;
5787;SDS011;2920;48.158;12.254;2023-01-16T04:45:23;6.10;;;2.38;;
5787;SDS011;2920;48.158;12.254;2023-01-16T04:47:49;3.17;;;2.03;;
5787;SDS011;2920;48.158;12.254;2023-01-16T04:50:15;2.50;;;2.25;;
5787;SDS011;2920;48.158;12.254;2023-01-16T04:52:41;2.83;;;2.10;;
5787;SDS011;2920;48.158;12.254;2023-01-16T04:55:06;2.83;;;1.95;;
5787;SDS011;2920;48.158;12.254;2023-01-16T04:57:32;2.55;;;1.98;;
5787;SDS011;2920;48.158;12.254;2023-01-16T04:59:57;4.22;;;2.13;;
5787;SDS011;2920;48.158;12.254;2023-01-16T05:02:23;4.60;;;2.55;;
5787;SDS011;2920;48.158;12.254;2023-01-16T05:04:48;4.95;;;2.78;;
5787;SDS011;2920;48.158;12.254;2023-01-16T05:07:13;3.65;;;2.35;;
5787;SDS011;2920;48.158;12.254;2023-01-16T05:09:39;4.75;;;3.05;;
5787;SDS011;2920;48.158;12.254;2023-01-16T05:12:04;5.47;;;2.38;;
5787;SDS011;2920;48.158;12.254;2023-01-16T05:14:29;4.80;;;2.20;;
5787;SDS011;2920;48.158;12.254;2023-01-16T05:16:55;5.65;;;2.65;;
5787;SDS011;2920;48.158;12.254;2023-01-16T05:19:20;5.18;;;2.83;;
5787;SDS011;2920;48.158;12.254;2023-01-16T05:21:45;4.20;;;2.53;;
5787;SDS011;2920;48.158;12.254;2023-01-16T05:24:10;5.97;;;2.95;;
5787;SDS011;2920;48.158;12.254;2023-01-16T05:26:36;6.68;;;3.25;;
5787;SDS011;2920;48.158;12.254;2023-01-16T05:29:02;4.50;;;2.70;;
5787;SDS011;2920;48.158;12.254;2023-01-16T05:31:27;6.38;;;2.60;;
5787;SDS011;2920;48.158;12.254;2023-01-16T05:33:52;8.00;;;4.43;;
5787;SDS011;2920;48.158;12.254;2023-01-16T05:36:18;6.78;;;4.28;;
5787;SDS011;2920;48.158;12.254;2023-01-16T05:38:43;9.70;;;4.68;;
5787;SDS011;2920;48.158;12.254;2023-01-16T05:41:08;7.70;;;4.05;;
5787;SDS011;2920;48.158;12.254;2023-01-16T05:43:34;6.60;;;3.70;;
5787;SDS011;2920;48.158;12.254;2023-01-16T05:45:59;5.72;;;3.83;;
5787;SDS011;2920;48.158;12.254;2023-01-16T05:48:24;5.97;;;3.25;;
5787;SDS011;2920;48.158;12.254;2023-01-16T05:50:50;5.15;;;3.13;;
5787;SDS011;2920;48.158;12.254;2023-01-16T05:53:15;3.42;;;2.58;;
5787;SDS011;2920;48.158;12.254;2023-01-16T05:55:44;6.18;;;3.17;;
5787;SDS011;2920;48.158;12.254;2023-01-16T05:58:11;4.55;;;2.92;;
5787;SDS011;2920;48.158;12.254;2023-01-16T06:00:38;3.40;;;2.17;;
5787;SDS011;2920;48.158;12.254;2023-01-16T06:03:03;3.38;;;2.33;;
5787;SDS011;2920;48.158;12.254;2023-01-16T06:05:29;3.28;;;2.20;;
5787;SDS011;2920;48.158;12.254;2023-01-16T06:07:54;3.05;;;2.35;;
5787;SDS011;2920;48.158;12.254;2023-01-16T06:10:21;5.55;;;2.42;;
5787;SDS011;2920;48.158;12.254;2023-01-16T06:12:46;6.05;;;2.28;;
5787;SDS011;2920;48.158;12.254;2023-01-16T06:15:12;2.75;;;2.10;;
5787;SDS011;2920;48.158;12.254;2023-01-16T06:17:37;3.20;;;2.30;;
5787;SDS011;2920;48.158;12.254;2023-01-16T06:20:02;3.40;;;2.60;;
5787;SDS011;2920;48.158;12.254;2023-01-16T06:22:28;5.07;;;2.50;;
5787;SDS011;2920;48.158;12.254;2023-01-16T06:24:53;4.30;;;2.60;;
5787;SDS011;2920;48.158;12.254;2023-01-16T06:27:18;4.35;;;2.25;;
5787;SDS011;2920;48.158;12.254;2023-01-16T06:29:44;4.90;;;2.83;;
5787;SDS011;2920;48.158;12.254;2023-01-16T06:32:09;5.28;;;2.85;;
5787;SDS011;2920;48.158;12.254;2023-01-16T06:34:34;4.95;;;2.95;;
5787;SDS011;2920;48.158;12.254;2023-01-16T06:37:00;4.53;;;3.05;;
5787;SDS011;2920;48.158;12.254;2023-01-16T06:39:25;3.42;;;2.67;;
5787;SDS011;2920;48.158;12.254;2023-01-16T06:41:50;4.03;;;2.72;;
5787;SDS011;2920;48.158;12.254;2023-01-16T06:44:16;5.07;;;2.83;;
5787;SDS011;2920;48.158;12.254;2023-01-16T06:46:41;5.28;;;3.15;;
5787;SDS011;2920;48.158;12.254;2023-01-16T06:49:06;6.15;;;3.50;;
5787;SDS011;2920;48.158;12.254;2023-01-16T06:51:32;6.68;;;3.30;;
5787;SDS011;2920;48.158;12.254;2023-01-16T06:53:57;5.40;;;2.88;;
5787;SDS011;2920;48.158;12.254;2023-01-16T06:56:22;3.33;;;2.28;;
5787;SDS011;2920;48.158;12.254;2023-01-16T06:58:49;5.47;;;2.88;;
5787;SDS011;2920;48.158;12.254;2023-01-16T07:01:14;3.97;;;2.78;;
5787;SDS011;2920;48.158;12.254;2023-01-16T07:03:39;3.40;;;2.42;;
5787;SDS011;2920;48.158;12.254;2023-01-16T07:06:05;5.20;;;2.78;;
5787;SDS011;2920;48.158;12.254;2023-01-16T07:08:30;5.07;;;3.28;;
5787;SDS011;2920;48.158;12.254;2023-01-16T07:10:59;3.50;;;2.65;;
5787;SDS011;2920;48.158;12.254;2023-01-16T07:13:24;4.07;;;3.05;;
5787;SDS011;2920;48.158;12.254;2023-01-16T07:15:53;5.25;;;2.60;;
5787;SDS011;2920;48.158;12.254;2023-01-16T07:18:36;4.22;;;2.75;;
5787;SDS011;2920;48.158;12.254;2023-01-16T07:21:21;4.68;;;2.55;;
5787;SDS011;2920;48.158;12.254;2023-01-16T07:24:09;3.25;;;2.35;;
5787;SDS011;2920;48.158;12.254;2023-01-16T07:26:37;3.25;;;2.45;;
5787;SDS011;2920;48.158;12.254;2023-01-16T07:29:03;2.70;;;2.33;;
5787;SDS011;2920;48.158;12.254;2023-01-16T07:31:28;3.97;;;2.42;;
5787;SDS011;2920;48.158;12.254;2023-01-16T07:33:55;4.20;;;2.38;;
5787;SDS011;2920;48.158;12.254;2023-01-16T07:36:20;3.10;;;2.25;;
5787;SDS011;2920;48.158;12.254;2023-01-16T07:38:46;6.45;;;3.03;;
5787;SDS011;2920;48.158;12.254;2023-01-16T07:41:11;6.22;;;3.25;;
5787;SDS011;2920;48.158;12.254;2023-01-16T07:43:36;7.65;;;3.63;;
5787;SDS011;2920;48.158;12.254;2023-01-16T07:46:02;5.82;;;3.85;;
5787;SDS011;2920;48.158;12.254;2023-01-16T07:48:27;9.93;;;3.90;;
5787;SDS011;2920;48.158;12.254;2023-01-16T07:50:56;3.63;;;3.30;;
5787;SDS011;2920;48.158;12.254;2023-01-16T07:53:23;5.18;;;3.72;;
5787;SDS011;2920;48.158;12.254;2023-01-16T07:55:50;6.18;;;4.03;;
5787;SDS011;2920;48.158;12.254;2023-01-16T07:58:17;9.32;;;4.03;;
5787;SDS011;2920;48.158;12.254;2023-01-16T08:00:43;8.65;;;3.63;;
5787;SDS011;2920;48.158;12.254;2023-01-16T08:03:08;6.95;;;4.65;;
5787;SDS011;2920;48.158;12.254;2023-01-16T08:05:34;4.93;;;3.55;;
5787;SDS011;2920;48.158;12.254;2023-01-16T08:07:59;5.78;;;3.47;;
5787;SDS011;2920;48.158;12.254;2023-01-16T08:10:24;6.20;;;3.80;;
5787;SDS011;2920;48.158;12.254;2023-01-16T08:12:50;6.32;;;3.60;;
5787;SDS011;2920;48.158;12.254;2023-01-16T08:15:15;5.32;;;3.65;;
5787;SDS011;2920;48.158;12.254;2023-01-16T08:17:41;5.97;;;3.40;;
5787;SDS011;2920;48.158;12.254;2023-01-16T08:20:06;5.20;;;3.10;;
5787;SDS011;2920;48.158;12.254;2023-01-16T08:22:32;4.75;;;3.47;;
5787;SDS011;2920;48.158;12.254;2023-01-16T08:24:58;7.10;;;3.92;;
5787;SDS011;2920;48.158;12.254;2023-01-16T08:27:23;5.97;;;3.53;;
5787;SDS011;2920;48.158;12.254;2023-01-16T08:29:49;3.28;;;2.30;;
5787;SDS011;2920;48.158;12.254;2023-01-16T08:32:14;2.47;;;1.90;;
5787;SDS011;2920;48.158;12.254;2023-01-16T08:34:40;3.65;;;2.28;;
5787;SDS011;2920;48.158;12.254;2023-01-16T08:37:06;3.78;;;2.25;;
5787;SDS011;2920;48.158;12.254;2023-01-16T08:39:35;2.90;;;2.17;;
5787;SDS011;2920;48.158;12.254;2023-01-16T08:42:00;3.83;;;2.38;;
5787;SDS011;2920;48.158;12.254;2023-01-16T08:44:44;3.35;;;2.20;;
5787;SDS011;2920;48.158;12.254;2023-01-16T08:47:28;2.45;;;2.00;;
5787;SDS011;2920;48.158;12.254;2023-01-16T08:50:12;4.95;;;2.00;;
5787;SDS011;2920;48.158;12.254;2023-01-16T08:52:58;2.55;;;1.80;;
5787;SDS011;2920;48.158;12.254;2023-01-16T08:55:23;4.32;;;2.20;;
5787;SDS011;2920;48.158;12.254;2023-01-16T08:57:49;2.38;;;1.92;;
5787;SDS011;2920;48.158;12.254;2023-01-16T09:00:14;3.17;;;1.88;;
5787;SDS011;2920;48.158;12.254;2023-01-16T09:02:40;2.70;;;1.92;;
5787;SDS011;2920;48.158;12.254;2023-01-16T09:05:05;2.50;;;1.73;;
5787;SDS011;2920;48.158;12.254;2023-01-16T09:07:31;3.00;;;2.00;;
5787;SDS011;2920;48.158;12.254;2023-01-16T09:09:56;1.77;;;1.55;;
5787;SDS011;2920;48.158;12.254;2023-01-16T09:12:22;2.03;;;1.60;;
5787;SDS011;2920;48.158;12.254;2023-01-16T09:15:06;3.40;;;1.40;;
5787;SDS011;2920;48.158;12.254;2023-01-16T09:17:32;3.22;;;2.10;;
5787;SDS011;2920;48.158;12.254;2023-01-16T09:19:57;2.97;;;1.52;;
5787;SDS011;2920;48.158;12.254;2023-01-16T09:22:22;1.98;;;1.63;;
5787;SDS011;2920;48.158;12.254;2023-01-16T09:24:48;1.50;;;1.13;;
5787;SDS011;2920;48.158;12.254;2023-01-16T09:27:13;2.00;;;1.38;;
5787;SDS011;2920;48.158;12.254;2023-01-16T09:29:39;3.83;;;1.60;;
5787;SDS011;2920;48.158;12.254;2023-01-16T09:32:05;3.38;;;1.98;;
5787;SDS011;2920;48.158;12.254;2023-01-16T09:34:37;2.75;;;1.88;;
5787;SDS011;2920;48.158;12.254;2023-01-16T09:37:03;2.42;;;1.50;;
5787;SDS011;2920;48.158;12.254;2023-01-16T09:39:29;4.82;;;1.60;;
5787;SDS011;2920;48.158;12.254;2023-01-16T09:44:54;2.38;;;1.50;;
5787;SDS011;2920;48.158;12.254;2023-01-16T09:47:22;6.50;;;1.58;;
5787;SDS011;2920;48.158;12.254;2023-01-16T09:49:52;5.50;;;1.58;;
5787;SDS011;2920;48.158;12.254;2023-01-16T09:52:20;2.22;;;1.40;;
5787;SDS011;2920;48.158;12.254;2023-01-16T09:55:56;2.55;;;1.42;;
5787;SDS011;2920;48.158;12.254;2023-01-16T09:58:20;2.20;;;1.30;;
5787;SDS011;2920;48.158;12.254;2023-01-16T10:03:34;3.63;;;1.20;;
5787;SDS011;2920;48.158;12.254;2023-01-16T10:06:18;2.20;;;1.10;;
5787;SDS011;2920;48.158;12.254;2023-01-16T10:30:39;3.17;;;1.13;;
5787;SDS011;2920;48.158;12.254;2023-01-16T10:33:47;1.10;;;1.00;;
5787;SDS011;2920;48.158;12.254;2023-01-16T10:36:05;2.70;;;1.15;;
5787;SDS011;2920;48.158;12.254;2023-01-16T10:38:41;1.30;;;1.10;;
5787;SDS011;2920;48.158;12.254;2023-01-16T10:41:29;1.55;;;1.00;;
5787;SDS011;2920;48.158;12.254;2023-01-16T10:44:23;1.50;;;1.00;;
5787;SDS011;2920;48.158;12.254;2023-01-16T10:47:11;6.03;;;1.25;;
5787;SDS011;2920;48.158;12.254;2023-01-16T10:49:56;2.28;;;1.15;;
5787;SDS011;2920;48.158;12.254;2023-01-16T10:52:22;2.40;;;1.30;;
5787;SDS011;2920;48.158;12.254;2023-01-16T10:54:49;5.45;;;1.40;;
5787;SDS011;2920;48.158;12.254;2023-01-16T10:57:16;3.10;;;1.48;;
5787;SDS011;2920;48.158;12.254;2023-01-16T10:59:44;3.47;;;1.30;;
5787;SDS011;2920;48.158;12.254;2023-01-16T11:02:15;2.00;;;1.00;;
5787;SDS011;2920;48.158;12.254;2023-01-16T11:04:46;1.23;;;1.10;;
5787;SDS011;2920;48.158;12.254;2023-01-16T11:07:12;2.25;;;1.20;;
5787;SDS011;2920;48.158;12.254;2023-01-16T11:09:39;2.05;;;0.90;;
5787;SDS011;2920;48.158;12.254;2023-01-16T11:12:09;1.20;;;1.10;;
5787;SDS011;2920;48.158;12.254;2023-01-16T11:14:55;1.60;;;1.00;;
5787;SDS011;2920;48.158;12.254;2023-01-16T11:17:59;1.95;;;0.80;;
5787;SDS011;2920;48.158;12.254;2023-01-16T11:20:43;1.48;;;0.70;;
5787;SDS011;2920;48.158;12.254;2023-01-16T11:25:42;0.68;;;0.55;;
5787;SDS011;2920;48.158;12.254;2023-01-16T11:28:17;0.80;;;0.70;;
5787;SDS011;2920;48.158;12.254;2023-01-16T11:30:46;1.10;;;0.70;;
5787;SDS011;2920;48.158;12.254;2023-01-16T11:33:16;1.20;;;0.70;;
5787;SDS011;2920;48.158;12.254;2023-01-16T11:35:50;0.43;;;0.43;;
5787;SDS011;2920;48.158;12.254;2023-01-16T11:38:18;1.38;;;0.52;;
5787;SDS011;2920;48.158;12.254;2023-01-16T11:40:44;1.52;;;0.77;;
5787;SDS011;2920;48.158;12.254;2023-01-16T11:43:15;1.13;;;0.70;;
5787;SDS011;2920;48.158;12.254;2023-01-16T11:46:04;2.22;;;0.57;;
5787;SDS011;2920;48.158;12.254;2023-01-16T11:48:41;0.52;;;0.52;;
5787;SDS011;2920;48.158;12.254;2023-01-16T11:51:14;1.85;;;0.80;;
5787;SDS011;2920;48.158;12.254;2023-01-16T11:53:42;1.30;;;0.85;;
5787;SDS011;2920;48.158;12.254;2023-01-16T12:04:43;0.55;;;0.50;;
5787;SDS011;2920;48.158;12.254;2023-01-16T12:07:35;0.90;;;0.60;;
5787;SDS011;2920;48.158;12.254;2023-01-16T12:10:05;1.08;;;0.60;;
5787;SDS011;2920;48.158;12.254;2023-01-16T12:12:45;0.98;;;0.80;;
5787;SDS011;2920;48.158;12.254;2023-01-16T12:15:42;1.30;;;0.60;;
5787;SDS011;2920;48.158;12.254;2023-01-16T12:18:24;1.02;;;0.68;;
5787;SDS011;2920;48.158;12.254;2023-01-16T12:21:00;0.85;;;0.55;;
5787;SDS011;2920;48.158;12.254;2023-01-16T12:26:34;0.63;;;0.63;;
5787;SDS011;2920;48.158;12.254;2023-01-16T12:40:34;0.43;;;0.43;;
5787;SDS011;2920;48.158;12.254;2023-01-16T12:46:28;0.50;;;0.50;;
5787;SDS011;2920;48.158;12.254;2023-01-16T12:49:03;1.38;;;0.80;;
5787;SDS011;2920;48.158;12.254;2023-01-16T12:51:52;1.30;;;0.68;;
5787;SDS011;2920;48.158;12.254;2023-01-16T12:54:33;0.95;;;0.77;;
5787;SDS011;2920;48.158;12.254;2023-01-16T12:57:08;0.65;;;0.50;;
5787;SDS011;2920;48.158;12.254;2023-01-16T13:04:40;1.17;;;0.60;;
5787;SDS011;2920;48.158;12.254;2023-01-16T13:07:11;0.68;;;0.60;;
5787;SDS011;2920;48.158;12.254;2023-01-16T13:12:14;0.30;;;0.20;;
5787;SDS011;2920;48.158;12.254;2023-01-16T13:15:12;0.47;;;0.45;;
5787;SDS011;2920;48.158;12.254;2023-01-16T13:17:47;1.25;;;0.55;;
5787;SDS011;2920;48.158;12.254;2023-01-16T13:20:15;0.40;;;0.40;;
5787;SDS011;2920;48.158;12.254;2023-01-16T13:23:03;0.57;;;0.57;;
5787;SDS011;2920;48.158;12.254;2023-01-16T13:25:32;1.17;;;0.82;;
5787;SDS011;2920;48.158;12.254;2023-01-16T13:28:00;0.50;;;0.45;;
5787;SDS011;2920;48.158;12.254;2023-01-16T13:30:31;0.80;;;0.55;;
5787;SDS011;2920;48.158;12.254;2023-01-16T13:32:57;0.50;;;0.45;;
5787;SDS011;2920;48.158;12.254;2023-01-16T13:46:43;3.33;;;0.80;;
5787;SDS011;2920;48.158;12.254;2023-01-16T13:49:14;0.75;;;0.55;;
5787;SDS011;2920;48.158;12.254;2023-01-16T13:51:46;0.98;;;0.68;;
5787;SDS011;2920;48.158;12.254;2023-01-16T13:54:18;0.90;;;0.57;;
5787;SDS011;2920;48.158;12.254;2023-01-16T13:56:55;1.08;;;0.75;;
5787;SDS011;2920;48.158;12.254;2023-01-16T13:59:47;0.90;;;0.73;;
5787;SDS011;2920;48.158;12.254;2023-01-16T14:11:02;0.40;;;0.40;;
5787;SDS011;2920;48.158;12.254;2023-01-16T14:13:36;0.82;;;0.80;;
5787;SDS011;2920;48.158;12.254;2023-01-16T14:23:56;0.75;;;0.40;;
5787;SDS011;2920;48.158;12.254;2023-01-16T14:26:39;1.08;;;0.60;;
5787;SDS011;2920;48.158;12.254;2023-01-16T14:29:21;1.10;;;0.73;;
5787;SDS011;2920;48.158;12.254;2023-01-16T14:34:19;2.85;;;0.88;;
5787;SDS011;2920;48.158;12.254;2023-01-16T14:36:50;1.48;;;0.80;;
5787;SDS011;2920;48.158;12.254;2023-01-16T14:39:28;2.00;;;0.93;;
5787;SDS011;2920;48.158;12.254;2023-01-16T14:41:56;1.92;;;1.10;;
5787;SDS011;2920;48.158;12.254;2023-01-16T14:44:57;2.95;;;1.15;;
5787;SDS011;2920;48.158;12.254;2023-01-16T14:47:45;2.47;;;1.00;;
5787;SDS011;2920;48.158;12.254;2023-01-16T14:50:43;2.60;;;1.05;;
5787;SDS011;2920;48.158;12.254;2023-01-16T14:53:28;1.40;;;0.80;;
5787;SDS011;2920;48.158;12.254;2023-01-16T14:56:21;1.65;;;0.88;;
5787;SDS011;2920;48.158;12.254;2023-01-16T14:58:52;1.00;;;0.70;;
5787;SDS011;2920;48.158;12.254;2023-01-16T15:01:23;1.67;;;1.00;;
5787;SDS011;2920;48.158;12.254;2023-01-16T15:04:09;3.05;;;1.40;;
5787;SDS011;2920;48.158;12.254;2023-01-16T15:06:40;5.00;;;1.70;;
5787;SDS011;2920;48.158;12.254;2023-01-16T15:11:48;1.70;;;1.10;;
5787;SDS011;2920;48.158;12.254;2023-01-16T15:14:17;1.15;;;1.00;;
5787;SDS011;2920;48.158;12.254;2023-01-16T15:16:51;1.65;;;1.27;;
5787;SDS011;2920;48.158;12.254;2023-01-16T15:19:37;1.77;;;1.35;;
5787;SDS011;2920;48.158;12.254;2023-01-16T15:22:54;3.13;;;1.17;;
5787;SDS011;2920;48.158;12.254;2023-01-16T15:28:23;2.55;;;1.27;;
5787;SDS011;2920;48.158;12.254;2023-01-16T15:30:50;2.00;;;1.13;;
5787;SDS011;2920;48.158;12.254;2023-01-16T15:33:22;1.60;;;0.90;;
5787;SDS011;2920;48.158;12.254;2023-01-16T15:36:24;1.35;;;0.80;;
5787;SDS011;2920;48.158;12.254;2023-01-16T15:41:55;0.57;;;0.55;;
5787;SDS011;2920;48.158;12.254;2023-01-16T15:44:43;2.92;;;1.08;;
5787;SDS011;2920;48.158;12.254;2023-01-16T15:53:04;7.60;;;3.40;;
5787;SDS011;2920;48.158;12.254;2023-01-16T15:55:30;7.95;;;3.42;;
5787;SDS011;2920;48.158;12.254;2023-01-16T15:58:04;6.75;;;3.15;;
5787;SDS011;2920;48.158;12.254;2023-01-16T16:02:59;6.53;;;2.80;;
5787;SDS011;2920;48.158;12.254;2023-01-16T16:05:27;5.97;;;2.50;;
5787;SDS011;2920;48.158;12.254;2023-01-16T16:07:53;12.93;;;5.45;;
5787;SDS011;2920;48.158;12.254;2023-01-16T16:10:18;10.98;;;6.10;;
5787;SDS011;2920;48.158;12.254;2023-01-16T16:13:03;7.90;;;3.83;;
5787;SDS011;2920;48.158;12.254;2023-01-16T16:15:29;8.27;;;3.78;;
5787;SDS011;2920;48.158;12.254;2023-01-16T16:18:14;8.68;;;3.35;;
5787;SDS011;2920;48.158;12.254;2023-01-16T16:20:41;4.43;;;2.58;;
5787;SDS011;2920;48.158;12.254;2023-01-16T16:25:44;4.13;;;2.13;;
5787;SDS011;2920;48.158;12.254;2023-01-16T16:28:53;5.20;;;2.42;;
5787;SDS011;2920;48.158;12.254;2023-01-16T16:31:12;4.53;;;2.70;;
5787;SDS011;2920;48.158;12.254;2023-01-16T16:33:56;3.25;;;1.90;;
5787;SDS011;2920;48.158;12.254;2023-01-16T16:36:23;3.33;;;2.10;;
5787;SDS011;2920;48.158;12.254;2023-01-16T16:38:49;3.20;;;1.83;;
5787;SDS011;2920;48.158;12.254;2023-01-16T16:49:25;6.05;;;2.65;;
5787;SDS011;2920;48.158;12.254;2023-01-16T16:51:40;8.02;;;2.88;;
5787;SDS011;2920;48.158;12.254;2023-01-16T16:54:08;4.10;;;2.47;;
5787;SDS011;2920;48.158;12.254;2023-01-16T16:56:36;3.60;;;1.77;;
5787;SDS011;2920;48.158;12.254;2023-01-16T16:59:02;3.47;;;1.73;;
5787;SDS011;2920;48.158;12.254;2023-01-16T17:01:28;2.47;;;1.50;;
5787;SDS011;2920;48.158;12.254;2023-01-16T17:03:57;3.05;;;1.65;;
5787;SDS011;2920;48.158;12.254;2023-01-16T17:06:32;3.53;;;1.67;;
5787;SDS011;2920;48.158;12.254;2023-01-16T17:08:58;2.22;;;1.25;;
5787;SDS011;2920;48.158;12.254;2023-01-16T17:11:24;2.22;;;1.40;;
5787;SDS011;2920;48.158;12.254;2023-01-16T17:13:51;2.92;;;1.50;;
5787;SDS011;2920;48.158;12.254;2023-01-16T17:16:18;3.30;;;1.75;;
5787;SDS011;2920;48.158;12.254;2023-01-16T17:18:45;2.60;;;1.77;;
5787;SDS011;2920;48.158;12.254;2023-01-16T17:21:12;2.63;;;1.13;;
5787;SDS011;2920;48.158;12.254;2023-01-16T17:23:39;4.77;;;2.10;;
5787;SDS011;2920;48.158;12.254;2023-01-16T17:26:04;4.68;;;2.33;;
5787;SDS011;2920;48.158;12.254;2023-01-16T17:28:29;3.47;;;1.95;;
5787;SDS011;2920;48.158;12.254;2023-01-16T17:30:55;4.93;;;2.78;;
5787;SDS011;2920;48.158;12.254;2023-01-16T17:33:20;4.40;;;2.40;;
5787;SDS011;2920;48.158;12.254;2023-01-16T17:35:47;5.28;;;2.03;;
5787;SDS011;2920;48.158;12.254;2023-01-16T17:38:24;3.72;;;2.00;;
5787;SDS011;2920;48.158;12.254;2023-01-16T17:40:49;4.13;;;2.30;;
5787;SDS011;2920;48.158;12.254;2023-01-16T17:43:16;4.25;;;2.15;;
5787;SDS011;2920;48.158;12.254;2023-01-16T17:46:08;8.18;;;2.90;;
5787;SDS011;2920;48.158;12.254;2023-01-16T17:48:36;6.10;;;3.03;;
5787;SDS011;2920;48.158;12.254;2023-01-16T17:51:02;5.25;;;2.88;;
5787;SDS011;2920;48.158;12.254;2023-01-16T17:53:28;5.43;;;2.53;;
5787;SDS011;2920;48.158;12.254;2023-01-16T17:55:55;5.82;;;2.80;;
5787;SDS011;2920;48.158;12.254;2023-01-16T17:58:23;9.40;;;4.10;;
5787;SDS011;2920;48.158;12.254;2023-01-16T18:03:57;4.78;;;2.75;;
5787;SDS011;2920;48.158;12.254;2023-01-16T18:06:33;6.22;;;2.58;;
5787;SDS011;2920;48.158;12.254;2023-01-16T18:08:59;5.78;;;2.75;;
5787;SDS011;2920;48.158;12.254;2023-01-16T18:11:30;5.40;;;3.22;;